createdAt,value
2022-10-09T00:00:29.240Z,5.88
2022-10-09T00:02:56.458Z,6.15
2022-10-09T00:05:26.765Z,6.05
2022-10-09T00:07:54.661Z,6.72
2022-10-09T00:10:22.310Z,6.40
2022-10-09T00:12:49.940Z,6.50
2022-10-09T00:15:17.620Z,7.32
2022-10-09T00:17:45.168Z,6.40
2022-10-09T00:20:12.708Z,7.13
2022-10-09T00:22:40.233Z,6.50
2022-10-09T00:25:07.755Z,6.45
2022-10-09T00:27:34.946Z,6.97
2022-10-09T00:30:02.289Z,6.82
2022-10-09T00:32:29.419Z,6.95
2022-10-09T00:34:56.557Z,7.32
2022-10-09T00:37:23.860Z,7.05
2022-10-09T00:39:51.006Z,6.65
2022-10-09T00:42:18.144Z,7.40
2022-10-09T00:44:50.082Z,7.07
2022-10-09T00:47:26.336Z,7.35
2022-10-09T00:49:55.494Z,7.25
2022-10-09T00:52:24.041Z,7.47
2022-10-09T00:54:51.775Z,6.85
2022-10-09T00:57:19.344Z,6.88
2022-10-09T00:59:46.582Z,7.28
2022-10-09T01:02:13.793Z,7.45
2022-10-09T01:04:41.085Z,7.55
2022-10-09T01:07:26.999Z,6.43
2022-10-09T01:10:23.622Z,7.18
2022-10-09T01:13:09.501Z,7.10
2022-10-09T01:15:36.826Z,8.07
2022-10-09T01:18:13.549Z,8.40
2022-10-09T01:21:00.341Z,7.97
2022-10-09T01:23:47.746Z,7.85
2022-10-09T01:26:16.118Z,8.15
2022-10-09T01:28:52.812Z,7.50
2022-10-09T01:31:21.541Z,8.23
2022-10-09T01:33:49.263Z,7.68
2022-10-09T01:36:17.367Z,8.40
2022-10-09T01:38:45.821Z,7.68
2022-10-09T01:41:12.986Z,8.07
2022-10-09T01:43:41.176Z,9.15
2022-10-09T01:46:19.002Z,8.57
2022-10-09T01:48:48.560Z,8.18
2022-10-09T01:51:16.859Z,8.85
2022-10-09T01:53:45.082Z,9.15
2022-10-09T01:56:14.663Z,10.82
2022-10-09T01:58:54.480Z,9.30
2022-10-09T02:01:30.077Z,10.95
2022-10-09T02:03:58.947Z,10.00
2022-10-09T02:06:27.201Z,9.88
2022-10-09T02:08:55.657Z,10.50
2022-10-09T02:11:25.367Z,10.88
2022-10-09T02:13:53.299Z,12.52
2022-10-09T02:16:23.284Z,11.60
2022-10-09T02:18:53.736Z,11.50
2022-10-09T02:21:30.226Z,11.57
2022-10-09T02:23:59.611Z,11.70
2022-10-09T02:26:27.442Z,11.50
2022-10-09T02:28:54.839Z,12.77
2022-10-09T02:31:25.340Z,11.27
2022-10-09T02:33:59.432Z,11.80
2022-10-09T02:36:27.688Z,11.48
2022-10-09T02:38:55.451Z,12.45
2022-10-09T02:41:23.180Z,12.15
2022-10-09T02:43:50.488Z,13.20
2022-10-09T02:46:17.778Z,12.88
2022-10-09T02:48:44.966Z,12.60
2022-10-09T02:51:12.223Z,12.77
2022-10-09T02:53:39.594Z,12.23
2022-10-09T02:56:06.811Z,12.70
2022-10-09T02:58:34.790Z,13.27
2022-10-09T03:01:02.186Z,12.82
2022-10-09T03:03:29.384Z,12.02
2022-10-09T03:06:02.690Z,12.82
2022-10-09T03:08:29.899Z,12.63
2022-10-09T03:10:57.070Z,12.30
2022-10-09T03:13:24.467Z,12.18
2022-10-09T03:15:51.697Z,11.48
2022-10-09T03:18:19.202Z,11.40
2022-10-09T03:20:46.935Z,11.77
2022-10-09T03:23:14.136Z,11.38
2022-10-09T03:25:41.276Z,11.70
2022-10-09T03:28:08.577Z,11.55
2022-10-09T03:30:35.713Z,12.57
2022-10-09T03:33:03.099Z,12.48
2022-10-09T03:35:30.378Z,11.82
2022-10-09T03:37:57.631Z,11.50
2022-10-09T03:40:24.775Z,12.65
2022-10-09T03:42:52.188Z,12.68
2022-10-09T03:45:19.397Z,12.90
2022-10-09T03:47:46.541Z,12.25
2022-10-09T03:50:13.838Z,12.32
2022-10-09T03:52:41.112Z,12.40
2022-10-09T03:55:08.508Z,12.80
2022-10-09T03:57:36.588Z,12.90
2022-10-09T04:00:04.494Z,13.85
2022-10-09T04:02:32.648Z,14.75
2022-10-09T04:05:00.097Z,15.40
2022-10-09T04:07:27.334Z,13.40
2022-10-09T04:09:54.607Z,13.85
2022-10-09T04:12:21.902Z,14.48
2022-10-09T04:14:49.120Z,13.15
2022-10-09T04:17:16.291Z,13.35
2022-10-09T04:19:43.589Z,13.10
2022-10-09T04:22:10.739Z,14.15
2022-10-09T04:24:37.893Z,14.18
2022-10-09T04:27:05.465Z,14.05
2022-10-09T04:29:32.617Z,13.18
2022-10-09T04:31:59.846Z,13.20
2022-10-09T04:34:27.142Z,12.95
2022-10-09T04:36:54.306Z,12.30
2022-10-09T04:39:21.526Z,12.55
2022-10-09T04:41:48.831Z,12.93
2022-10-09T04:44:16.018Z,11.40
2022-10-09T04:46:43.215Z,10.23
2022-10-09T04:49:14.067Z,10.45
2022-10-09T04:51:41.716Z,10.25
2022-10-09T04:54:09.890Z,10.60
2022-10-09T04:56:37.307Z,11.07
2022-10-09T04:59:04.522Z,10.35
2022-10-09T05:01:37.085Z,11.38
2022-10-09T05:04:05.476Z,10.77
2022-10-09T05:06:32.661Z,10.75
2022-10-09T05:08:59.834Z,11.77
2022-10-09T05:11:27.158Z,12.10
2022-10-09T05:13:55.601Z,10.75
2022-10-09T05:16:27.092Z,12.77
2022-10-09T05:18:56.093Z,11.38
2022-10-09T05:21:23.278Z,11.27
2022-10-09T05:23:50.598Z,10.98
2022-10-09T05:26:19.004Z,10.38
2022-10-09T05:28:46.285Z,10.38
2022-10-09T05:31:33.928Z,10.70
2022-10-09T05:34:02.066Z,10.63
2022-10-09T05:36:29.276Z,11.32
2022-10-09T05:38:57.598Z,11.18
2022-10-09T05:41:24.835Z,10.85
2022-10-09T05:43:51.978Z,9.93
2022-10-09T05:46:20.576Z,10.98
2022-10-09T05:48:52.431Z,11.23
2022-10-09T05:51:23.974Z,11.20
2022-10-09T05:53:51.437Z,11.25
2022-10-09T05:56:20.238Z,11.65
2022-10-09T05:58:57.663Z,12.35
2022-10-09T06:01:26.154Z,11.80
2022-10-09T06:03:54.708Z,11.80
2022-10-09T06:06:22.654Z,11.35
2022-10-09T06:08:49.840Z,10.63
2022-10-09T06:11:19.120Z,11.10
2022-10-09T06:13:46.504Z,10.90
2022-10-09T06:16:14.476Z,10.27
2022-10-09T06:18:45.511Z,10.82
2022-10-09T06:21:16.347Z,11.05
2022-10-09T06:23:43.935Z,10.38
2022-10-09T06:26:14.325Z,10.10
2022-10-09T06:28:41.754Z,10.88
2022-10-09T06:31:10.634Z,9.70
2022-10-09T06:33:39.231Z,10.63
2022-10-09T06:36:10.212Z,11.70
2022-10-09T06:41:05.720Z,11.43
2022-10-09T06:43:33.052Z,12.25
2022-10-09T06:46:04.511Z,11.73
2022-10-09T06:48:32.482Z,10.80
2022-10-09T06:51:03.272Z,12.05
2022-10-09T06:53:30.463Z,11.80
2022-10-09T06:55:59.033Z,12.27
2022-10-09T06:58:26.578Z,10.65
2022-10-09T07:01:06.004Z,10.70
2022-10-09T07:03:33.587Z,11.75
2022-10-09T07:06:17.209Z,11.60
2022-10-09T07:08:45.634Z,11.88
2022-10-09T07:11:14.168Z,11.15
2022-10-09T07:13:41.761Z,12.05
2022-10-09T07:16:09.798Z,11.52
2022-10-09T07:18:37.500Z,12.52
2022-10-09T07:21:05.827Z,12.27
2022-10-09T07:23:33.878Z,11.43
2022-10-09T07:26:01.858Z,13.73
2022-10-09T07:28:30.403Z,13.18
2022-10-09T07:30:57.718Z,13.60
2022-10-09T07:33:24.902Z,13.00
2022-10-09T07:35:56.085Z,13.82
2022-10-09T07:40:52.413Z,13.43
2022-10-09T07:43:21.266Z,14.63
2022-10-09T07:45:48.616Z,13.45
2022-10-09T07:48:15.786Z,13.65
2022-10-09T07:50:43.129Z,13.43
2022-10-09T07:53:10.309Z,13.35
2022-10-09T07:55:37.490Z,12.80
2022-10-09T07:58:04.690Z,12.88
2022-10-09T08:00:31.911Z,12.88
2022-10-09T08:02:59.092Z,14.82
2022-10-09T08:05:26.244Z,13.82
2022-10-09T08:07:53.578Z,13.23
2022-10-09T08:10:20.842Z,14.55
2022-10-09T08:12:48.371Z,13.20
2022-10-09T08:15:15.956Z,14.23
2022-10-09T08:17:43.239Z,13.88
2022-10-09T08:20:10.484Z,14.50
2022-10-09T08:22:37.727Z,13.30
2022-10-09T08:25:05.075Z,13.38
2022-10-09T08:27:32.248Z,13.52
2022-10-09T08:29:59.467Z,13.43
2022-10-09T08:32:26.790Z,13.45
2022-10-09T08:34:53.955Z,12.65
2022-10-09T08:37:21.178Z,13.02
2022-10-09T08:39:48.377Z,13.73
2022-10-09T08:42:34.591Z,13.25
2022-10-09T08:45:02.779Z,12.68
2022-10-09T08:47:40.832Z,13.43
2022-10-09T08:50:13.774Z,13.02
2022-10-09T08:52:50.513Z,12.00
2022-10-09T08:55:23.448Z,12.60
2022-10-09T08:57:52.259Z,12.07
2022-10-09T09:00:20.625Z,11.38
2022-10-09T09:02:51.115Z,11.05
2022-10-09T09:05:31.070Z,10.45
2022-10-09T09:08:01.004Z,10.40
2022-10-09T09:10:40.790Z,10.27
2022-10-09T09:13:26.917Z,8.13
2022-10-09T09:16:06.516Z,7.55
2022-10-09T09:19:00.149Z,7.85
2022-10-09T09:21:48.624Z,6.57
2022-10-09T09:24:18.735Z,6.47
2022-10-09T09:26:47.840Z,7.25
2022-10-09T09:29:16.207Z,6.47
2022-10-09T09:31:44.752Z,5.78
2022-10-09T09:34:11.947Z,6.20
2022-10-09T09:36:42.031Z,5.72
2022-10-09T09:42:20.392Z,5.15
2022-10-09T09:44:50.283Z,4.30
2022-10-09T09:47:43.699Z,4.97
2022-10-09T09:50:28.466Z,4.53
2022-10-09T09:53:02.036Z,4.07
2022-10-09T09:55:31.024Z,4.43
2022-10-09T09:58:18.143Z,4.40
2022-10-09T10:00:56.192Z,4.18
2022-10-09T10:03:24.256Z,4.43
2022-10-09T10:05:51.857Z,4.63
2022-10-09T10:08:23.290Z,4.63
2022-10-09T10:10:51.737Z,3.75
2022-10-09T10:13:20.482Z,4.40
2022-10-09T10:15:58.034Z,3.85
2022-10-09T10:18:26.415Z,4.13
2022-10-09T10:20:55.381Z,4.03
2022-10-09T10:23:25.499Z,3.55
2022-10-09T10:25:59.745Z,4.10
2022-10-09T10:28:30.368Z,4.10
2022-10-09T10:30:57.715Z,3.95
2022-10-09T10:33:29.861Z,3.50
2022-10-09T10:35:59.084Z,4.20
2022-10-09T10:38:44.571Z,4.40
2022-10-09T10:41:11.826Z,4.22
2022-10-09T10:43:44.296Z,4.18
2022-10-09T10:46:26.739Z,4.95
2022-10-09T10:48:53.997Z,4.78
2022-10-09T10:51:21.142Z,4.30
2022-10-09T10:53:48.728Z,4.05
2022-10-09T10:56:24.881Z,4.15
2022-10-09T10:58:58.758Z,4.10
2022-10-09T11:01:25.992Z,3.90
2022-10-09T11:04:12.094Z,4.38
2022-10-09T11:06:57.614Z,4.10
2022-10-09T11:09:29.891Z,3.80
2022-10-09T11:12:01.700Z,3.92
2022-10-09T11:14:28.846Z,4.25
2022-10-09T11:17:01.279Z,3.88
2022-10-09T11:19:47.052Z,3.47
2022-10-09T11:22:23.781Z,3.65
2022-10-09T11:25:13.934Z,3.45
2022-10-09T11:27:56.059Z,4.25
2022-10-09T11:30:25.221Z,3.85
2022-10-09T11:32:52.404Z,4.13
2022-10-09T11:35:21.848Z,4.50
2022-10-09T11:37:54.413Z,4.70
2022-10-09T11:40:23.880Z,4.18
2022-10-09T11:43:09.421Z,4.43
2022-10-09T11:45:36.714Z,4.55
2022-10-09T11:48:03.930Z,4.75
2022-10-09T11:50:49.437Z,5.28
2022-10-09T11:53:18.165Z,5.53
2022-10-09T11:55:46.517Z,5.63
2022-10-09T11:58:18.555Z,5.78
2022-10-09T12:00:46.577Z,6.00
2022-10-09T12:03:33.585Z,5.22
2022-10-09T12:06:17.684Z,5.00
2022-10-09T12:09:05.138Z,6.20
2022-10-09T12:11:33.510Z,6.75
2022-10-09T12:14:05.767Z,6.45
2022-10-09T12:16:37.397Z,6.40
2022-10-09T12:19:06.851Z,6.85
2022-10-09T12:21:54.209Z,7.60
2022-10-09T12:24:28.668Z,8.02
2022-10-09T12:26:57.120Z,7.97
2022-10-09T12:29:26.394Z,8.63
2022-10-09T12:31:55.037Z,9.38
2022-10-09T12:34:27.256Z,10.63
2022-10-09T12:37:04.496Z,10.90
2022-10-09T12:39:33.758Z,12.00
2022-10-09T12:42:00.968Z,12.32
2022-10-09T12:44:32.185Z,11.93
2022-10-09T12:47:04.415Z,12.88
2022-10-09T12:49:31.674Z,13.05
2022-10-09T12:51:59.762Z,11.60
2022-10-09T12:54:27.438Z,11.80
2022-10-09T12:56:55.999Z,12.00
2022-10-09T12:59:24.510Z,12.23
2022-10-09T13:01:55.110Z,11.88
2022-10-09T13:04:25.529Z,12.05
2022-10-09T13:06:53.531Z,13.43
2022-10-09T13:09:50.295Z,12.27
2022-10-09T13:12:24.852Z,12.77
2022-10-09T13:14:56.914Z,14.32
2022-10-09T13:17:27.156Z,13.73
2022-10-09T13:19:55.265Z,14.77
2022-10-09T13:22:23.448Z,14.82
2022-10-09T13:24:53.206Z,15.38
2022-10-09T13:27:21.211Z,15.15
2022-10-09T13:29:48.771Z,16.10
2022-10-09T13:32:17.011Z,16.67
2022-10-09T13:34:44.638Z,16.17
2022-10-09T13:37:15.742Z,16.25
2022-10-09T13:39:42.943Z,18.15
2022-10-09T13:42:14.987Z,18.25
2022-10-09T13:44:42.348Z,17.27
2022-10-09T13:47:10.907Z,17.20
2022-10-09T13:49:38.080Z,16.05
2022-10-09T13:52:05.423Z,17.85
2022-10-09T13:54:32.599Z,18.20
2022-10-09T13:56:59.803Z,16.70
2022-10-09T13:59:27.062Z,16.90
2022-10-09T14:01:54.314Z,18.73
2022-10-09T14:04:21.594Z,17.77
2022-10-09T14:06:48.851Z,17.92
2022-10-09T14:09:16.033Z,18.15
2022-10-09T14:11:43.449Z,18.27
2022-10-09T14:14:10.743Z,18.60
2022-10-09T14:16:37.902Z,18.45
2022-10-09T14:19:06.129Z,18.42
2022-10-09T14:21:33.869Z,18.70
2022-10-09T14:24:01.791Z,19.63
2022-10-09T14:26:29.418Z,19.75
2022-10-09T14:28:59.022Z,19.63
2022-10-09T14:31:26.666Z,18.38
2022-10-09T14:33:56.070Z,19.08
2022-10-09T14:36:23.435Z,19.23
2022-10-09T14:38:50.704Z,19.02
2022-10-09T14:41:18.206Z,20.67
2022-10-09T14:43:45.942Z,19.40
2022-10-09T14:46:16.797Z,19.13
2022-10-09T14:48:45.041Z,17.77
2022-10-09T14:51:13.299Z,19.05
2022-10-09T14:53:40.511Z,19.30
2022-10-09T14:56:09.174Z,20.50
2022-10-09T14:58:37.267Z,19.42
2022-10-09T15:01:04.802Z,19.33
2022-10-09T15:03:33.252Z,18.95
2022-10-09T15:06:01.256Z,19.65
2022-10-09T15:08:30.216Z,18.25
2022-10-09T15:10:57.401Z,19.67
2022-10-09T15:13:24.641Z,19.08
2022-10-09T15:15:51.934Z,20.02
2022-10-09T15:18:19.135Z,18.95
2022-10-09T15:20:47.206Z,18.38
2022-10-09T15:23:14.356Z,17.75
2022-10-09T15:25:48.667Z,20.65
2022-10-09T15:28:17.127Z,19.30
2022-10-09T15:30:44.999Z,19.25
2022-10-09T15:33:12.341Z,20.13
2022-10-09T15:35:39.821Z,18.08
2022-10-09T15:38:07.498Z,18.50
2022-10-09T15:40:42.938Z,18.38
2022-10-09T15:43:10.182Z,19.58
2022-10-09T15:45:37.339Z,19.88
2022-10-09T15:48:04.709Z,19.13
2022-10-09T15:50:32.169Z,19.20
2022-10-09T15:52:59.909Z,19.90
2022-10-09T15:55:27.209Z,19.02
2022-10-09T15:57:54.384Z,19.42
2022-10-09T16:00:21.516Z,18.35
2022-10-09T16:02:49.104Z,19.90
2022-10-09T16:05:18.987Z,19.38
2022-10-09T16:07:49.434Z,19.65
2022-10-09T16:10:16.633Z,20.50
2022-10-09T16:12:43.822Z,20.30
2022-10-09T16:15:11.412Z,19.15
2022-10-09T16:17:38.624Z,18.35
2022-10-09T16:20:06.077Z,20.05
2022-10-09T16:22:33.479Z,19.63
2022-10-09T16:25:00.694Z,18.35
2022-10-09T16:27:27.919Z,18.77
2022-10-09T16:29:55.223Z,19.45
2022-10-09T16:32:22.442Z,19.00
2022-10-09T16:34:50.287Z,18.60
2022-10-09T16:37:17.700Z,19.02
2022-10-09T16:39:45.450Z,19.40
2022-10-09T16:42:12.610Z,19.80
2022-10-09T16:44:40.031Z,19.40
2022-10-09T16:47:07.262Z,18.63
2022-10-09T16:49:34.656Z,18.95
2022-10-09T16:52:02.003Z,17.90
2022-10-09T16:54:29.213Z,19.17
2022-10-09T16:56:56.396Z,18.02
2022-10-09T16:59:23.733Z,18.05
2022-10-09T17:01:51.310Z,20.17
2022-10-09T17:04:18.590Z,19.25
2022-10-09T17:06:46.592Z,19.88
2022-10-09T17:09:14.526Z,19.25
2022-10-09T17:11:41.902Z,20.55
2022-10-09T17:14:09.262Z,19.13
2022-10-09T17:16:38.705Z,18.90
2022-10-09T17:19:06.441Z,20.52
2022-10-09T17:21:34.816Z,20.20
2022-10-09T17:24:03.743Z,20.42
2022-10-09T17:26:31.201Z,21.30
2022-10-09T17:28:59.398Z,19.00
2022-10-09T17:31:26.933Z,19.63
2022-10-09T17:33:55.639Z,19.25
2022-10-09T17:36:23.855Z,19.65
2022-10-09T17:38:51.443Z,20.90
2022-10-09T17:41:19.718Z,19.88
2022-10-09T17:43:47.014Z,20.02
2022-10-09T17:46:14.845Z,21.23
2022-10-09T17:48:45.229Z,20.83
2022-10-09T17:51:16.989Z,21.38
2022-10-09T17:53:44.932Z,20.38
2022-10-09T17:56:12.175Z,20.48
2022-10-09T17:58:39.470Z,21.50
2022-10-09T18:01:07.948Z,20.60
2022-10-09T18:03:35.488Z,21.85
2022-10-09T18:06:05.953Z,19.65
2022-10-09T18:08:33.190Z,19.98
2022-10-09T18:11:08.137Z,20.02
2022-10-09T18:13:36.299Z,20.90
2022-10-09T18:16:11.630Z,19.42
2022-10-09T18:18:38.933Z,22.02
2022-10-09T18:21:07.385Z,20.95
2022-10-09T18:23:34.790Z,18.67
2022-10-09T18:26:02.353Z,17.52
2022-10-09T18:28:29.545Z,16.88
2022-10-09T18:30:58.744Z,14.27
2022-10-09T18:33:25.949Z,16.40
2022-10-09T18:35:53.238Z,14.80
2022-10-09T18:38:20.601Z,14.98
2022-10-09T18:40:47.816Z,14.15
2022-10-09T18:43:14.986Z,13.02
2022-10-09T18:45:46.562Z,12.63
2022-10-09T18:48:14.789Z,8.55
2022-10-09T18:50:42.143Z,8.15
2022-10-09T18:53:09.479Z,8.35
2022-10-09T18:55:36.686Z,7.07
2022-10-09T18:58:04.266Z,6.65
2022-10-09T19:00:32.049Z,6.47
2022-10-09T19:02:59.266Z,7.15
2022-10-09T19:05:26.473Z,7.15
2022-10-09T19:07:55.654Z,7.40
2022-10-09T19:10:23.110Z,6.78
2022-10-09T19:12:52.767Z,6.57
2022-10-09T19:15:20.387Z,7.30
2022-10-09T19:17:47.759Z,7.70
2022-10-09T19:20:15.167Z,6.80
2022-10-09T19:22:42.939Z,6.72
2022-10-09T19:25:10.145Z,6.18
2022-10-09T19:27:37.669Z,5.80
2022-10-09T19:30:05.382Z,6.70
2022-10-09T19:32:32.567Z,6.00
2022-10-09T19:34:59.752Z,5.47
2022-10-09T19:37:29.684Z,5.70
2022-10-09T19:39:57.316Z,5.53
2022-10-09T19:42:24.890Z,4.72
2022-10-09T19:44:52.158Z,4.35
2022-10-09T19:47:19.396Z,4.72
2022-10-09T19:49:46.556Z,4.90
2022-10-09T19:52:13.874Z,4.95
2022-10-09T19:54:41.114Z,5.25
2022-10-09T19:57:08.270Z,4.95
2022-10-09T19:59:35.674Z,5.25
2022-10-09T20:02:02.831Z,4.63
2022-10-09T20:04:30.011Z,5.45
2022-10-09T20:06:57.301Z,4.78
2022-10-09T20:09:24.668Z,4.47
2022-10-09T20:11:51.903Z,4.88
2022-10-09T20:14:20.603Z,5.07
2022-10-09T20:16:47.783Z,4.15
2022-10-09T20:19:15.001Z,4.60
2022-10-09T20:21:42.228Z,4.57
2022-10-09T20:24:09.662Z,3.63
2022-10-09T20:26:40.899Z,3.70
2022-10-09T20:29:10.141Z,3.58
2022-10-09T20:31:37.315Z,3.95
2022-10-09T20:34:04.463Z,3.50
2022-10-09T20:36:36.642Z,3.47
2022-10-09T20:39:08.795Z,3.28
2022-10-09T20:41:36.326Z,3.08
2022-10-09T20:44:04.098Z,3.20
2022-10-09T20:46:32.634Z,3.00
2022-10-09T20:49:00.123Z,3.42
2022-10-09T20:51:27.580Z,3.42
2022-10-09T20:53:56.010Z,3.05
2022-10-09T20:56:24.338Z,3.67
2022-10-09T20:58:51.579Z,3.65
2022-10-09T21:01:19.028Z,2.80
2022-10-09T21:03:46.238Z,3.30
2022-10-09T21:06:15.171Z,3.22
2022-10-09T21:08:42.382Z,3.20
2022-10-09T21:11:10.998Z,3.58
2022-10-09T21:13:38.602Z,2.92
2022-10-09T21:16:06.906Z,3.20
2022-10-09T21:18:34.182Z,2.97
2022-10-09T21:21:05.714Z,2.45
2022-10-09T21:23:32.866Z,2.72
2022-10-09T21:26:00.372Z,2.58
2022-10-09T21:28:27.764Z,2.78
2022-10-09T21:30:54.979Z,2.42
2022-10-09T21:33:22.139Z,2.60
2022-10-09T21:35:51.024Z,2.72
2022-10-09T21:38:22.263Z,2.97
2022-10-09T21:43:16.786Z,2.72
2022-10-09T21:45:44.023Z,2.15
2022-10-09T21:48:14.779Z,2.85
2022-10-09T21:50:41.995Z,2.67
2022-10-09T21:53:09.305Z,2.72
2022-10-09T21:55:37.872Z,2.70
2022-10-09T21:58:05.489Z,2.47
2022-10-09T22:00:32.779Z,2.58
2022-10-09T22:02:59.947Z,2.47
2022-10-09T22:05:27.421Z,2.63
2022-10-09T22:07:54.583Z,2.63
2022-10-09T22:10:21.738Z,2.58
2022-10-09T22:12:49.233Z,2.33
2022-10-09T22:15:16.689Z,2.35
2022-10-09T22:17:43.829Z,2.30
2022-10-09T22:20:11.135Z,2.17
2022-10-09T22:22:38.297Z,2.33
2022-10-09T22:25:05.732Z,2.25
2022-10-09T22:27:32.967Z,2.28
2022-10-09T22:30:00.133Z,2.17
2022-10-09T22:32:27.284Z,2.00
2022-10-09T22:34:54.624Z,1.90
2022-10-09T22:37:21.765Z,2.20
2022-10-09T22:39:49.632Z,1.75
2022-10-09T22:42:16.979Z,2.22
2022-10-09T22:44:44.122Z,2.25
2022-10-09T22:47:11.285Z,2.00
2022-10-09T22:49:38.629Z,1.75
2022-10-09T22:52:05.946Z,1.90
2022-10-09T22:54:33.134Z,2.55
2022-10-09T22:57:00.483Z,2.13
2022-10-09T22:59:27.709Z,1.60
2022-10-09T23:01:56.688Z,2.10
2022-10-09T23:04:24.177Z,2.10
2022-10-09T23:06:52.630Z,2.20
2022-10-09T23:09:20.288Z,2.15
2022-10-09T23:11:47.702Z,2.50
2022-10-09T23:14:14.942Z,2.35
2022-10-09T23:16:42.836Z,2.58
2022-10-09T23:19:10.952Z,3.22
2022-10-09T23:21:39.377Z,2.72
2022-10-09T23:24:06.620Z,3.10
2022-10-09T23:26:34.563Z,3.05
2022-10-09T23:29:03.445Z,3.03
2022-10-09T23:31:30.915Z,2.70
2022-10-09T23:33:58.450Z,2.75
2022-10-09T23:36:27.207Z,2.55
2022-10-09T23:38:54.739Z,2.65
2022-10-09T23:41:23.210Z,2.25
2022-10-09T23:43:50.803Z,2.55
2022-10-09T23:46:19.758Z,2.53
2022-10-09T23:48:57.345Z,2.25
2022-10-09T23:51:27.534Z,2.40
2022-10-09T23:53:54.909Z,2.58
2022-10-09T23:56:26.544Z,2.50
2022-10-09T23:58:54.380Z,2.22
